Airfield :
LOGIN :

Register | Disclaimer

   EN    FR    IT 

 










Legend :    VFR   Marginal VFR   IFR   Intensive IFR   Very Intensive IFR
Visi :
Ceiling :
>= 8 km
>= 3000ft
5 to 8 km
1000 to 3000 ft
1500m to 5 km
500 to 1000 ft
800 to 1500m
200 to 500 ft
< 800m
< 200 ft
Symbols :   Thunderstorms  Fog  Heavy snow  Heavy precipitations  Wind > 20 kt
SIGMETs :     Misc.  Thunderstorms  Icing  Turbulence  Mountain Waves  Volcanic Ashes






- Airport Elevation : 1325 ft
- IATA code : EBU


LFMH - St-Etienne Boutheon

CURRENT METAR :
  • 040000Z AUTO 29003KT 260V350 9999 FEW040/// SCT170/// //////TCU 20/14 Q1020

EXPIRED METARs :
  • 031530Z AUTO 34008KT 310V020 9999 VCTS ///CB 30/15 Q1018
  • 032330Z AUTO VRB03KT 9999 FEW041 BKN120 20/15 Q1020
  • 032300Z AUTO VRB01KT CAVOK 20/16 Q1020
  • 032230Z AUTO VRB02KT CAVOK 20/16 Q1020
  • 032200Z AUTO VRB02KT 9999 -RA FEW047 SCT140 BKN190 21/15 Q1020

Expired Forecast.
ATIS : +33 4 77 36 17 51



MET'MAP, your aeronautical weather chart ! - Copyright ORBIFLY December 2007 - Disclaimer

ORBIFLY MET'MAP TEAM :

Programming & Development : Alexandra Zaïnal
Original concept : Baudouin d'Aumeries
Technical & hardware support : Manuel Goepfert
Assistance : Marc-Olivier Méhu




SOURCES & CREDITS :

   NOAA